TimeCST,TemperatureF,Dew PointF,Humidity,Sea Level PressureIn,VisibilityMPH,Wind Direction,Wind SpeedMPH,Gust SpeedMPH,PrecipitationIn,Events,Conditions,WindDirDegrees,DateUTC
12:53 AM,43.0,30.0,60,30.08,10.0,NE,3.5,-,N/A,,Clear,40,2013-11-20 06:53:00
1:53 AM,42.1,30.9,65,30.09,10.0,NNE,3.5,-,N/A,,Clear,20,2013-11-20 07:53:00
2:53 AM,42.1,30.9,65,30.09,10.0,Calm,Calm,-,N/A,,Clear,0,2013-11-20 08:53:00
3:53 AM,41.0,30.9,67,30.09,10.0,NE,3.5,-,N/A,,Clear,50,2013-11-20 09:53:00
4:53 AM,41.0,30.9,67,30.09,10.0,ENE,3.5,-,N/A,,Clear,60,2013-11-20 10:53:00
5:53 AM,39.9,30.9,70,30.10,10.0,Calm,Calm,-,N/A,,Clear,0,2013-11-20 11:53:00
6:53 AM,39.9,30.9,70,30.12,10.0,NE,4.6,-,N/A,,Clear,40,2013-11-20 12:53:00
7:53 AM,44.1,32.0,63,30.13,10.0,East,4.6,-,N/A,,Clear,80,2013-11-20 13:53:00
8:53 AM,50.0,34.0,54,30.14,10.0,Variable,3.5,-,N/A,,Clear,0,2013-11-20 14:53:00
9:53 AM,57.0,37.0,47,30.13,10.0,Variable,3.5,-,N/A,,Clear,0,2013-11-20 15:53:00
10:53 AM,63.0,37.9,40,30.10,10.0,Variable,4.6,-,N/A,,Clear,0,2013-11-20 16:53:00
11:53 AM,66.9,39.0,36,30.09,10.0,Variable,4.6,-,N/A,,Clear,0,2013-11-20 17:53:00
12:53 PM,69.1,36.0,30,30.06,10.0,Variable,4.6,-,N/A,,Clear,0,2013-11-20 18:53:00
1:53 PM,71.1,35.1,27,30.04,10.0,ENE,4.6,-,N/A,,Clear,70,2013-11-20 19:53:00
2:53 PM,71.1,36.0,28,30.04,10.0,SE,5.8,-,N/A,,Clear,130,2013-11-20 20:53:00
3:53 PM,70.0,37.9,31,30.04,10.0,Variable,3.5,-,N/A,,Clear,0,2013-11-20 21:53:00
4:53 PM,66.0,39.9,38,30.06,10.0,Calm,Calm,-,N/A,,Clear,0,2013-11-20 22:53:00
5:53 PM,59.0,43.0,55,30.08,10.0,Calm,Calm,-,N/A,,Clear,0,2013-11-20 23:53:00
6:53 PM,55.9,43.0,62,30.09,10.0,Calm,Calm,-,N/A,,Clear,0,2013-11-21 00:53:00
7:53 PM,53.1,43.0,69,30.11,10.0,Calm,Calm,-,N/A,,Clear,0,2013-11-21 01:53:00
8:53 PM,52.0,44.1,74,30.12,10.0,Calm,Calm,-,N/A,,Clear,0,2013-11-21 02:53:00
9:53 PM,51.1,44.1,77,30.12,10.0,Calm,Calm,-,N/A,,Clear,0,2013-11-21 03:53:00
10:53 PM,51.1,46.0,83,30.12,10.0,Calm,Calm,-,N/A,,Clear,0,2013-11-21 04:53:00
11:53 PM,53.1,48.9,86,30.12,10.0,East,3.5,-,N/A,,Clear,90,2013-11-21 05:53:00